sensor_id;sensor_type;location;lat;lon;timestamp;P1;durP1;ratioP1;P2;durP2;ratioP2
56477;SDS011;42382;53.210;5.772;2024-02-15T00:00:38;50.25;;;12.40;;
56477;SDS011;42382;53.210;5.772;2024-02-15T00:03:04;37.55;;;11.80;;
56477;SDS011;42382;53.210;5.772;2024-02-15T00:05:33;37.55;;;11.75;;
56477;SDS011;42382;53.210;5.772;2024-02-15T00:08:01;40.88;;;11.88;;
56477;SDS011;42382;53.210;5.772;2024-02-15T00:10:27;44.85;;;10.75;;
56477;SDS011;42382;53.210;5.772;2024-02-15T00:12:53;46.25;;;11.88;;
56477;SDS011;42382;53.210;5.772;2024-02-15T00:15:19;46.75;;;12.15;;
56477;SDS011;42382;53.210;5.772;2024-02-15T00:17:44;41.60;;;10.73;;
56477;SDS011;42382;53.210;5.772;2024-02-15T00:20:14;41.20;;;10.38;;
56477;SDS011;42382;53.210;5.772;2024-02-15T00:22:39;47.30;;;11.20;;
56477;SDS011;42382;53.210;5.772;2024-02-15T00:25:08;42.47;;;10.68;;
56477;SDS011;42382;53.210;5.772;2024-02-15T00:27:39;42.55;;;10.13;;
56477;SDS011;42382;53.210;5.772;2024-02-15T00:30:04;41.25;;;9.00;;
56477;SDS011;42382;53.210;5.772;2024-02-15T00:32:32;42.35;;;9.45;;
56477;SDS011;42382;53.210;5.772;2024-02-15T00:34:58;35.55;;;8.70;;
56477;SDS011;42382;53.210;5.772;2024-02-15T00:37:24;40.05;;;8.85;;
56477;SDS011;42382;53.210;5.772;2024-02-15T00:39:49;44.47;;;9.25;;
56477;SDS011;42382;53.210;5.772;2024-02-15T00:42:15;38.03;;;8.50;;
56477;SDS011;42382;53.210;5.772;2024-02-15T00:44:41;31.58;;;8.40;;
56477;SDS011;42382;53.210;5.772;2024-02-15T00:47:09;42.75;;;9.02;;
56477;SDS011;42382;53.210;5.772;2024-02-15T00:49:36;34.83;;;8.10;;
56477;SDS011;42382;53.210;5.772;2024-02-15T00:52:02;46.70;;;9.52;;
56477;SDS011;42382;53.210;5.772;2024-02-15T00:54:27;39.13;;;8.82;;
56477;SDS011;42382;53.210;5.772;2024-02-15T00:56:53;35.92;;;8.40;;
56477;SDS011;42382;53.210;5.772;2024-02-15T00:59:19;34.72;;;7.55;;
56477;SDS011;42382;53.210;5.772;2024-02-15T01:01:44;39.50;;;8.73;;
56477;SDS011;42382;53.210;5.772;2024-02-15T01:04:11;40.72;;;8.40;;
56477;SDS011;42382;53.210;5.772;2024-02-15T01:06:37;32.65;;;7.47;;
56477;SDS011;42382;53.210;5.772;2024-02-15T01:09:02;35.10;;;8.75;;
56477;SDS011;42382;53.210;5.772;2024-02-15T01:11:31;42.95;;;9.13;;
56477;SDS011;42382;53.210;5.772;2024-02-15T01:13:57;37.13;;;8.43;;
56477;SDS011;42382;53.210;5.772;2024-02-15T01:16:23;43.70;;;8.82;;
56477;SDS011;42382;53.210;5.772;2024-02-15T01:18:52;35.28;;;7.18;;
56477;SDS011;42382;53.210;5.772;2024-02-15T01:21:18;30.33;;;7.28;;
56477;SDS011;42382;53.210;5.772;2024-02-15T01:23:44;27.23;;;7.20;;
56477;SDS011;42382;53.210;5.772;2024-02-15T01:26:12;29.27;;;7.75;;
56477;SDS011;42382;53.210;5.772;2024-02-15T01:28:40;29.20;;;6.60;;
56477;SDS011;42382;53.210;5.772;2024-02-15T01:31:09;28.42;;;6.30;;
56477;SDS011;42382;53.210;5.772;2024-02-15T01:33:36;22.67;;;6.50;;
56477;SDS011;42382;53.210;5.772;2024-02-15T01:36:03;37.08;;;7.13;;
56477;SDS011;42382;53.210;5.772;2024-02-15T01:38:29;31.42;;;6.40;;
56477;SDS011;42382;53.210;5.772;2024-02-15T01:40:55;30.08;;;6.30;;
56477;SDS011;42382;53.210;5.772;2024-02-15T01:43:20;34.10;;;5.72;;
56477;SDS011;42382;53.210;5.772;2024-02-15T01:45:46;29.52;;;5.85;;
56477;SDS011;42382;53.210;5.772;2024-02-15T01:48:14;32.00;;;6.00;;
56477;SDS011;42382;53.210;5.772;2024-02-15T01:50:40;30.00;;;6.55;;
56477;SDS011;42382;53.210;5.772;2024-02-15T01:53:07;28.17;;;6.68;;
56477;SDS011;42382;53.210;5.772;2024-02-15T01:55:33;32.45;;;7.50;;
56477;SDS011;42382;53.210;5.772;2024-02-15T01:58:00;30.48;;;5.88;;
56477;SDS011;42382;53.210;5.772;2024-02-15T02:00:27;27.50;;;6.88;;
56477;SDS011;42382;53.210;5.772;2024-02-15T02:02:52;25.63;;;7.07;;
56477;SDS011;42382;53.210;5.772;2024-02-15T02:05:19;26.55;;;7.75;;
56477;SDS011;42382;53.210;5.772;2024-02-15T02:07:45;31.17;;;7.25;;
56477;SDS011;42382;53.210;5.772;2024-02-15T02:10:11;32.10;;;7.70;;
56477;SDS011;42382;53.210;5.772;2024-02-15T02:12:46;30.45;;;7.35;;
56477;SDS011;42382;53.210;5.772;2024-02-15T02:15:12;24.92;;;6.60;;
56477;SDS011;42382;53.210;5.772;2024-02-15T02:17:37;28.75;;;7.63;;
56477;SDS011;42382;53.210;5.772;2024-02-15T02:20:05;28.73;;;7.95;;
56477;SDS011;42382;53.210;5.772;2024-02-15T02:22:33;26.15;;;7.35;;
56477;SDS011;42382;53.210;5.772;2024-02-15T02:25:07;26.23;;;7.20;;
56477;SDS011;42382;53.210;5.772;2024-02-15T02:27:33;27.92;;;7.85;;
56477;SDS011;42382;53.210;5.772;2024-02-15T02:29:59;30.27;;;9.30;;
56477;SDS011;42382;53.210;5.772;2024-02-15T02:32:25;32.25;;;7.97;;
56477;SDS011;42382;53.210;5.772;2024-02-15T02:34:52;32.15;;;8.82;;
56477;SDS011;42382;53.210;5.772;2024-02-15T02:37:22;30.55;;;8.45;;
56477;SDS011;42382;53.210;5.772;2024-02-15T02:39:51;35.45;;;8.93;;
56477;SDS011;42382;53.210;5.772;2024-02-15T02:42:17;38.13;;;9.82;;
56477;SDS011;42382;53.210;5.772;2024-02-15T02:44:43;39.65;;;10.30;;
56477;SDS011;42382;53.210;5.772;2024-02-15T02:47:08;31.05;;;9.25;;
56477;SDS011;42382;53.210;5.772;2024-02-15T02:49:37;28.20;;;9.45;;
56477;SDS011;42382;53.210;5.772;2024-02-15T02:52:03;32.20;;;8.98;;
56477;SDS011;42382;53.210;5.772;2024-02-15T02:54:29;40.45;;;8.38;;
56477;SDS011;42382;53.210;5.772;2024-02-15T02:56:55;35.58;;;8.10;;
56477;SDS011;42382;53.210;5.772;2024-02-15T02:59:21;34.30;;;7.05;;
56477;SDS011;42382;53.210;5.772;2024-02-15T03:01:47;35.10;;;8.35;;
56477;SDS011;42382;53.210;5.772;2024-02-15T03:04:15;33.20;;;8.35;;
56477;SDS011;42382;53.210;5.772;2024-02-15T03:06:42;46.05;;;9.50;;
56477;SDS011;42382;53.210;5.772;2024-02-15T03:09:11;35.17;;;10.10;;
56477;SDS011;42382;53.210;5.772;2024-02-15T03:11:40;37.08;;;12.05;;
56477;SDS011;42382;53.210;5.772;2024-02-15T03:14:05;45.92;;;13.10;;
56477;SDS011;42382;53.210;5.772;2024-02-15T03:16:31;43.88;;;13.13;;
56477;SDS011;42382;53.210;5.772;2024-02-15T03:18:57;50.97;;;14.02;;
56477;SDS011;42382;53.210;5.772;2024-02-15T03:21:23;53.13;;;14.85;;
56477;SDS011;42382;53.210;5.772;2024-02-15T03:23:48;40.53;;;13.60;;
56477;SDS011;42382;53.210;5.772;2024-02-15T03:26:14;53.42;;;15.52;;
56477;SDS011;42382;53.210;5.772;2024-02-15T03:28:39;57.95;;;15.85;;
56477;SDS011;42382;53.210;5.772;2024-02-15T03:31:05;58.17;;;16.27;;
56477;SDS011;42382;53.210;5.772;2024-02-15T03:33:30;49.40;;;14.75;;
56477;SDS011;42382;53.210;5.772;2024-02-15T03:35:59;50.63;;;15.38;;
56477;SDS011;42382;53.210;5.772;2024-02-15T03:38:26;44.75;;;14.80;;
56477;SDS011;42382;53.210;5.772;2024-02-15T03:40:54;46.75;;;13.23;;
56477;SDS011;42382;53.210;5.772;2024-02-15T03:43:20;44.70;;;12.70;;
56477;SDS011;42382;53.210;5.772;2024-02-15T03:45:46;43.72;;;13.15;;
56477;SDS011;42382;53.210;5.772;2024-02-15T03:48:12;46.20;;;12.00;;
56477;SDS011;42382;53.210;5.772;2024-02-15T03:50:37;45.03;;;12.30;;
56477;SDS011;42382;53.210;5.772;2024-02-15T03:53:03;45.78;;;13.15;;
56477;SDS011;42382;53.210;5.772;2024-02-15T03:55:29;45.13;;;12.38;;
56477;SDS011;42382;53.210;5.772;2024-02-15T03:57:55;42.60;;;12.40;;
56477;SDS011;42382;53.210;5.772;2024-02-15T04:00:21;43.38;;;12.50;;
56477;SDS011;42382;53.210;5.772;2024-02-15T04:02:47;49.83;;;13.07;;
56477;SDS011;42382;53.210;5.772;2024-02-15T04:05:15;33.53;;;11.30;;
56477;SDS011;42382;53.210;5.772;2024-02-15T04:07:43;35.42;;;10.88;;
56477;SDS011;42382;53.210;5.772;2024-02-15T04:10:11;37.67;;;10.48;;
56477;SDS011;42382;53.210;5.772;2024-02-15T04:12:37;33.83;;;10.65;;
56477;SDS011;42382;53.210;5.772;2024-02-15T04:15:03;36.30;;;10.80;;
56477;SDS011;42382;53.210;5.772;2024-02-15T04:17:37;29.35;;;9.88;;
56477;SDS011;42382;53.210;5.772;2024-02-15T04:20:05;35.13;;;9.90;;
56477;SDS011;42382;53.210;5.772;2024-02-15T04:22:32;36.80;;;9.88;;
56477;SDS011;42382;53.210;5.772;2024-02-15T04:25:02;38.60;;;11.05;;
56477;SDS011;42382;53.210;5.772;2024-02-15T04:27:29;37.08;;;11.73;;
56477;SDS011;42382;53.210;5.772;2024-02-15T04:29:55;42.92;;;13.02;;
56477;SDS011;42382;53.210;5.772;2024-02-15T04:32:21;39.83;;;13.50;;
56477;SDS011;42382;53.210;5.772;2024-02-15T04:34:46;43.90;;;14.38;;
56477;SDS011;42382;53.210;5.772;2024-02-15T04:37:12;36.22;;;15.38;;
56477;SDS011;42382;53.210;5.772;2024-02-15T04:39:38;42.75;;;16.15;;
56477;SDS011;42382;53.210;5.772;2024-02-15T04:42:04;43.38;;;16.00;;
56477;SDS011;42382;53.210;5.772;2024-02-15T04:44:39;38.13;;;15.93;;
56477;SDS011;42382;53.210;5.772;2024-02-15T04:47:05;46.65;;;17.80;;
56477;SDS011;42382;53.210;5.772;2024-02-15T04:49:31;41.53;;;16.13;;
56477;SDS011;42382;53.210;5.772;2024-02-15T04:51:57;44.30;;;16.88;;
56477;SDS011;42382;53.210;5.772;2024-02-15T04:54:23;41.85;;;16.23;;
56477;SDS011;42382;53.210;5.772;2024-02-15T04:56:52;40.72;;;16.98;;
56477;SDS011;42382;53.210;5.772;2024-02-15T04:59:19;38.42;;;16.63;;
56477;SDS011;42382;53.210;5.772;2024-02-15T05:01:46;45.38;;;18.17;;
56477;SDS011;42382;53.210;5.772;2024-02-15T05:04:12;42.97;;;17.95;;
56477;SDS011;42382;53.210;5.772;2024-02-15T05:06:39;42.42;;;17.45;;
56477;SDS011;42382;53.210;5.772;2024-02-15T05:09:05;42.50;;;18.38;;
56477;SDS011;42382;53.210;5.772;2024-02-15T05:11:36;44.70;;;17.45;;
56477;SDS011;42382;53.210;5.772;2024-02-15T05:14:05;39.13;;;17.27;;
56477;SDS011;42382;53.210;5.772;2024-02-15T05:16:32;46.92;;;18.50;;
56477;SDS011;42382;53.210;5.772;2024-02-15T05:18:59;49.85;;;19.00;;
56477;SDS011;42382;53.210;5.772;2024-02-15T05:21:24;40.50;;;17.27;;
56477;SDS011;42382;53.210;5.772;2024-02-15T05:23:50;34.00;;;16.10;;
56477;SDS011;42382;53.210;5.772;2024-02-15T05:26:17;39.33;;;17.88;;
56477;SDS011;42382;53.210;5.772;2024-02-15T05:28:48;41.60;;;17.75;;
56477;SDS011;42382;53.210;5.772;2024-02-15T05:31:18;39.22;;;17.13;;
56477;SDS011;42382;53.210;5.772;2024-02-15T05:33:48;36.80;;;18.02;;
56477;SDS011;42382;53.210;5.772;2024-02-15T05:36:15;39.72;;;17.17;;
56477;SDS011;42382;53.210;5.772;2024-02-15T05:38:45;40.35;;;17.98;;
56477;SDS011;42382;53.210;5.772;2024-02-15T05:41:18;42.20;;;17.08;;
56477;SDS011;42382;53.210;5.772;2024-02-15T05:43:45;45.70;;;18.55;;
56477;SDS011;42382;53.210;5.772;2024-02-15T05:46:13;44.55;;;19.08;;
56477;SDS011;42382;53.210;5.772;2024-02-15T05:48:39;44.03;;;18.63;;
56477;SDS011;42382;53.210;5.772;2024-02-15T05:51:08;49.67;;;19.73;;
56477;SDS011;42382;53.210;5.772;2024-02-15T05:53:34;49.58;;;19.80;;
56477;SDS011;42382;53.210;5.772;2024-02-15T05:56:04;44.13;;;18.90;;
56477;SDS011;42382;53.210;5.772;2024-02-15T05:58:35;42.67;;;19.90;;
56477;SDS011;42382;53.210;5.772;2024-02-15T06:01:02;41.55;;;18.23;;
56477;SDS011;42382;53.210;5.772;2024-02-15T06:03:33;57.75;;;21.15;;
56477;SDS011;42382;53.210;5.772;2024-02-15T06:06:02;48.40;;;20.02;;
56477;SDS011;42382;53.210;5.772;2024-02-15T06:08:35;50.75;;;18.92;;
56477;SDS011;42382;53.210;5.772;2024-02-15T06:11:01;45.08;;;19.05;;
56477;SDS011;42382;53.210;5.772;2024-02-15T06:13:27;45.42;;;19.23;;
56477;SDS011;42382;53.210;5.772;2024-02-15T06:15:53;48.72;;;19.23;;
56477;SDS011;42382;53.210;5.772;2024-02-15T06:20:56;43.47;;;19.13;;
56477;SDS011;42382;53.210;5.772;2024-02-15T06:23:24;50.08;;;19.95;;
56477;SDS011;42382;53.210;5.772;2024-02-15T06:25:52;40.47;;;18.35;;
56477;SDS011;42382;53.210;5.772;2024-02-15T06:28:18;58.17;;;20.23;;
56477;SDS011;42382;53.210;5.772;2024-02-15T06:31:04;45.40;;;19.00;;
56477;SDS011;42382;53.210;5.772;2024-02-15T06:33:52;58.28;;;22.90;;
56477;SDS011;42382;53.210;5.772;2024-02-15T06:36:40;43.40;;;19.83;;
56477;SDS011;42382;53.210;5.772;2024-02-15T06:39:29;58.10;;;22.02;;
56477;SDS011;42382;53.210;5.772;2024-02-15T06:42:16;49.83;;;21.30;;
56477;SDS011;42382;53.210;5.772;2024-02-15T06:44:45;56.42;;;22.95;;
56477;SDS011;42382;53.210;5.772;2024-02-15T06:47:12;51.13;;;20.40;;
56477;SDS011;42382;53.210;5.772;2024-02-15T06:49:42;57.90;;;20.08;;
56477;SDS011;42382;53.210;5.772;2024-02-15T06:52:09;59.03;;;21.90;;
56477;SDS011;42382;53.210;5.772;2024-02-15T06:54:39;55.90;;;21.50;;
56477;SDS011;42382;53.210;5.772;2024-02-15T06:57:06;64.72;;;24.05;;
56477;SDS011;42382;53.210;5.772;2024-02-15T06:59:32;47.03;;;21.10;;
56477;SDS011;42382;53.210;5.772;2024-02-15T07:02:02;52.35;;;22.05;;
56477;SDS011;42382;53.210;5.772;2024-02-15T07:04:30;69.72;;;23.50;;
56477;SDS011;42382;53.210;5.772;2024-02-15T07:06:57;55.80;;;22.00;;
56477;SDS011;42382;53.210;5.772;2024-02-15T07:09:23;49.47;;;21.60;;
56477;SDS011;42382;53.210;5.772;2024-02-15T07:11:52;55.85;;;22.75;;
56477;SDS011;42382;53.210;5.772;2024-02-15T07:14:18;62.92;;;22.75;;
56477;SDS011;42382;53.210;5.772;2024-02-15T07:16:48;48.85;;;22.17;;
56477;SDS011;42382;53.210;5.772;2024-02-15T07:19:14;53.15;;;23.42;;
56477;SDS011;42382;53.210;5.772;2024-02-15T07:21:41;54.35;;;24.23;;
56477;SDS011;42382;53.210;5.772;2024-02-15T07:24:07;54.15;;;24.05;;
56477;SDS011;42382;53.210;5.772;2024-02-15T07:26:33;49.22;;;22.80;;
56477;SDS011;42382;53.210;5.772;2024-02-15T07:29:00;51.25;;;22.90;;
56477;SDS011;42382;53.210;5.772;2024-02-15T07:31:29;50.53;;;23.60;;
56477;SDS011;42382;53.210;5.772;2024-02-15T07:33:55;48.85;;;22.58;;
56477;SDS011;42382;53.210;5.772;2024-02-15T07:36:21;50.05;;;22.77;;
56477;SDS011;42382;53.210;5.772;2024-02-15T07:38:48;47.58;;;21.95;;
56477;SDS011;42382;53.210;5.772;2024-02-15T07:41:14;47.33;;;22.02;;
56477;SDS011;42382;53.210;5.772;2024-02-15T07:43:43;48.22;;;21.80;;
56477;SDS011;42382;53.210;5.772;2024-02-15T07:46:12;47.35;;;21.02;;
56477;SDS011;42382;53.210;5.772;2024-02-15T07:48:43;40.63;;;21.00;;
56477;SDS011;42382;53.210;5.772;2024-02-15T07:51:14;48.15;;;21.52;;
56477;SDS011;42382;53.210;5.772;2024-02-15T07:53:40;45.10;;;20.08;;
56477;SDS011;42382;53.210;5.772;2024-02-15T07:56:08;47.22;;;20.25;;
56477;SDS011;42382;53.210;5.772;2024-02-15T07:58:37;51.88;;;20.25;;
56477;SDS011;42382;53.210;5.772;2024-02-15T08:01:04;47.38;;;20.67;;
56477;SDS011;42382;53.210;5.772;2024-02-15T08:03:30;48.05;;;20.42;;
56477;SDS011;42382;53.210;5.772;2024-02-15T08:05:56;45.72;;;20.92;;
56477;SDS011;42382;53.210;5.772;2024-02-15T08:08:21;51.97;;;22.20;;
56477;SDS011;42382;53.210;5.772;2024-02-15T08:10:47;55.72;;;23.65;;
56477;SDS011;42382;53.210;5.772;2024-02-15T08:13:16;56.88;;;22.02;;
56477;SDS011;42382;53.210;5.772;2024-02-15T08:15:42;57.38;;;22.98;;
56477;SDS011;42382;53.210;5.772;2024-02-15T08:18:09;62.05;;;24.05;;
56477;SDS011;42382;53.210;5.772;2024-02-15T08:20:37;63.30;;;24.02;;
56477;SDS011;42382;53.210;5.772;2024-02-15T08:23:05;58.53;;;24.02;;
56477;SDS011;42382;53.210;5.772;2024-02-15T08:25:31;62.85;;;25.65;;
56477;SDS011;42382;53.210;5.772;2024-02-15T08:27:57;53.00;;;22.83;;
56477;SDS011;42382;53.210;5.772;2024-02-15T08:30:22;62.05;;;24.80;;
56477;SDS011;42382;53.210;5.772;2024-02-15T08:32:48;56.50;;;24.52;;
56477;SDS011;42382;53.210;5.772;2024-02-15T08:35:14;62.58;;;26.20;;
56477;SDS011;42382;53.210;5.772;2024-02-15T08:37:40;57.45;;;26.38;;
56477;SDS011;42382;53.210;5.772;2024-02-15T08:40:07;55.97;;;24.58;;
56477;SDS011;42382;53.210;5.772;2024-02-15T08:42:41;53.28;;;23.95;;
56477;SDS011;42382;53.210;5.772;2024-02-15T08:45:08;55.67;;;24.65;;
56477;SDS011;42382;53.210;5.772;2024-02-15T08:47:43;57.60;;;23.92;;
56477;SDS011;42382;53.210;5.772;2024-02-15T08:50:11;51.40;;;23.25;;
56477;SDS011;42382;53.210;5.772;2024-02-15T08:52:37;53.63;;;23.75;;
56477;SDS011;42382;53.210;5.772;2024-02-15T08:55:05;56.65;;;24.98;;
56477;SDS011;42382;53.210;5.772;2024-02-15T08:57:32;52.63;;;24.55;;
56477;SDS011;42382;53.210;5.772;2024-02-15T08:59:58;53.08;;;25.50;;
56477;SDS011;42382;53.210;5.772;2024-02-15T09:02:23;54.78;;;25.38;;
56477;SDS011;42382;53.210;5.772;2024-02-15T09:04:49;53.38;;;24.35;;
56477;SDS011;42382;53.210;5.772;2024-02-15T09:07:14;49.15;;;23.05;;
56477;SDS011;42382;53.210;5.772;2024-02-15T09:09:40;44.55;;;21.60;;
56477;SDS011;42382;53.210;5.772;2024-02-15T09:12:06;44.85;;;21.73;;
56477;SDS011;42382;53.210;5.772;2024-02-15T09:14:32;39.53;;;21.23;;
56477;SDS011;42382;53.210;5.772;2024-02-15T09:17:01;42.72;;;21.23;;
56477;SDS011;42382;53.210;5.772;2024-02-15T09:19:32;40.25;;;22.08;;
56477;SDS011;42382;53.210;5.772;2024-02-15T09:22:04;40.00;;;20.52;;
56477;SDS011;42382;53.210;5.772;2024-02-15T09:24:30;38.17;;;19.45;;
56477;SDS011;42382;53.210;5.772;2024-02-15T09:26:58;36.72;;;18.45;;
56477;SDS011;42382;53.210;5.772;2024-02-15T09:29:23;31.73;;;16.85;;
56477;SDS011;42382;53.210;5.772;2024-02-15T09:31:49;33.15;;;17.33;;
56477;SDS011;42382;53.210;5.772;2024-02-15T09:34:15;32.15;;;17.00;;
56477;SDS011;42382;53.210;5.772;2024-02-15T09:36:40;28.38;;;15.57;;
56477;SDS011;42382;53.210;5.772;2024-02-15T09:39:06;27.88;;;15.05;;
56477;SDS011;42382;53.210;5.772;2024-02-15T09:41:32;22.95;;;13.23;;
56477;SDS011;42382;53.210;5.772;2024-02-15T09:43:59;21.90;;;13.05;;
56477;SDS011;42382;53.210;5.772;2024-02-15T09:46:26;20.90;;;13.43;;
56477;SDS011;42382;53.210;5.772;2024-02-15T09:48:52;21.52;;;12.38;;
56477;SDS011;42382;53.210;5.772;2024-02-15T09:51:23;18.15;;;11.48;;
56477;SDS011;42382;53.210;5.772;2024-02-15T09:53:52;19.85;;;13.30;;
56477;SDS011;42382;53.210;5.772;2024-02-15T09:56:21;17.52;;;11.27;;
56477;SDS011;42382;53.210;5.772;2024-02-15T09:58:49;18.42;;;11.05;;
56477;SDS011;42382;53.210;5.772;2024-02-15T10:01:19;19.17;;;11.77;;
56477;SDS011;42382;53.210;5.772;2024-02-15T10:03:48;20.13;;;11.82;;
56477;SDS011;42382;53.210;5.772;2024-02-15T10:06:16;17.92;;;11.07;;
56477;SDS011;42382;53.210;5.772;2024-02-15T10:08:43;18.60;;;11.02;;
56477;SDS011;42382;53.210;5.772;2024-02-15T10:11:09;16.73;;;10.63;;
56477;SDS011;42382;53.210;5.772;2024-02-15T10:13:35;19.77;;;11.60;;
56477;SDS011;42382;53.210;5.772;2024-02-15T10:16:17;17.40;;;11.32;;
56477;SDS011;42382;53.210;5.772;2024-02-15T10:18:47;16.27;;;10.30;;
56477;SDS011;42382;53.210;5.772;2024-02-15T10:21:25;18.27;;;11.05;;
56477;SDS011;42382;53.210;5.772;2024-02-15T10:24:05;16.05;;;10.02;;
56477;SDS011;42382;53.210;5.772;2024-02-15T10:26:32;17.95;;;11.05;;
56477;SDS011;42382;53.210;5.772;2024-02-15T10:29:09;16.35;;;11.27;;
56477;SDS011;42382;53.210;5.772;2024-02-15T10:31:39;15.65;;;10.38;;
56477;SDS011;42382;53.210;5.772;2024-02-15T10:34:16;14.20;;;10.55;;
56477;SDS011;42382;53.210;5.772;2024-02-15T10:36:44;15.50;;;10.93;;
56477;SDS011;42382;53.210;5.772;2024-02-15T10:41:45;13.25;;;9.55;;
56477;SDS011;42382;53.210;5.772;2024-02-15T10:44:13;13.98;;;9.85;;
56477;SDS011;42382;53.210;5.772;2024-02-15T10:46:45;13.80;;;10.02;;
56477;SDS011;42382;53.210;5.772;2024-02-15T10:49:15;13.40;;;9.80;;
56477;SDS011;42382;53.210;5.772;2024-02-15T10:51:43;11.77;;;9.10;;
56477;SDS011;42382;53.210;5.772;2024-02-15T10:54:11;11.63;;;9.10;;
56477;SDS011;42382;53.210;5.772;2024-02-15T10:56:42;15.32;;;10.25;;
56477;SDS011;42382;53.210;5.772;2024-02-15T10:59:18;14.02;;;10.05;;
56477;SDS011;42382;53.210;5.772;2024-02-15T11:01:45;14.55;;;9.73;;
56477;SDS011;42382;53.210;5.772;2024-02-15T11:04:15;15.80;;;10.60;;
56477;SDS011;42382;53.210;5.772;2024-02-15T11:06:46;16.23;;;10.63;;
56477;SDS011;42382;53.210;5.772;2024-02-15T11:09:15;15.80;;;10.50;;
56477;SDS011;42382;53.210;5.772;2024-02-15T11:11:42;16.85;;;10.27;;
56477;SDS011;42382;53.210;5.772;2024-02-15T11:14:25;15.35;;;10.13;;
56477;SDS011;42382;53.210;5.772;2024-02-15T11:16:52;18.27;;;10.68;;
56477;SDS011;42382;53.210;5.772;2024-02-15T11:19:51;15.35;;;10.30;;
56477;SDS011;42382;53.210;5.772;2024-02-15T11:22:14;16.98;;;10.38;;
56477;SDS011;42382;53.210;5.772;2024-02-15T11:24:47;19.45;;;11.00;;
56477;SDS011;42382;53.210;5.772;2024-02-15T11:27:14;19.42;;;10.68;;
56477;SDS011;42382;53.210;5.772;2024-02-15T11:29:56;22.02;;;10.50;;
56477;SDS011;42382;53.210;5.772;2024-02-15T11:42:49;37.45;;;14.18;;
56477;SDS011;42382;53.210;5.772;2024-02-15T11:45:18;50.97;;;16.67;;
56477;SDS011;42382;53.210;5.772;2024-02-15T11:47:48;46.20;;;16.40;;
56477;SDS011;42382;53.210;5.772;2024-02-15T11:50:16;47.30;;;16.63;;
56477;SDS011;42382;53.210;5.772;2024-02-15T11:52:49;57.85;;;18.40;;
56477;SDS011;42382;53.210;5.772;2024-02-15T11:55:19;55.60;;;17.67;;
56477;SDS011;42382;53.210;5.772;2024-02-15T11:57:59;64.22;;;19.92;;
56477;SDS011;42382;53.210;5.772;2024-02-15T12:00:35;54.13;;;18.05;;
56477;SDS011;42382;53.210;5.772;2024-02-15T12:03:20;65.50;;;20.95;;
56477;SDS011;42382;53.210;5.772;2024-02-15T12:06:04;61.63;;;20.70;;
56477;SDS011;42382;53.210;5.772;2024-02-15T12:08:51;59.22;;;19.55;;
56477;SDS011;42382;53.210;5.772;2024-02-15T12:11:36;66.72;;;22.40;;
56477;SDS011;42382;53.210;5.772;2024-02-15T12:14:21;70.32;;;22.35;;
56477;SDS011;42382;53.210;5.772;2024-02-15T12:17:06;65.55;;;24.52;;
56477;SDS011;42382;53.210;5.772;2024-02-15T12:22:22;59.25;;;22.02;;
56477;SDS011;42382;53.210;5.772;2024-02-15T12:25:00;51.58;;;20.25;;
56477;SDS011;42382;53.210;5.772;2024-02-15T12:30:02;45.40;;;20.27;;
56477;SDS011;42382;53.210;5.772;2024-02-15T12:32:31;47.45;;;20.50;;
56477;SDS011;42382;53.210;5.772;2024-02-15T12:35:10;49.78;;;20.90;;
56477;SDS011;42382;53.210;5.772;2024-02-15T12:37:40;49.47;;;21.85;;
56477;SDS011;42382;53.210;5.772;2024-02-15T12:40:13;48.13;;;21.42;;
56477;SDS011;42382;53.210;5.772;2024-02-15T12:42:45;46.30;;;20.73;;
56477;SDS011;42382;53.210;5.772;2024-02-15T12:45:18;42.45;;;20.17;;
56477;SDS011;42382;53.210;5.772;2024-02-15T12:47:52;42.67;;;21.20;;
56477;SDS011;42382;53.210;5.772;2024-02-15T12:50:22;46.85;;;20.80;;
56477;SDS011;42382;53.210;5.772;2024-02-15T12:52:54;50.50;;;22.20;;
56477;SDS011;42382;53.210;5.772;2024-02-15T12:55:31;50.22;;;23.17;;
56477;SDS011;42382;53.210;5.772;2024-02-15T12:58:02;42.15;;;21.90;;
56477;SDS011;42382;53.210;5.772;2024-02-15T13:00:32;49.38;;;22.52;;
56477;SDS011;42382;53.210;5.772;2024-02-15T13:02:58;47.15;;;22.67;;
56477;SDS011;42382;53.210;5.772;2024-02-15T13:05:27;48.53;;;22.73;;
56477;SDS011;42382;53.210;5.772;2024-02-15T13:07:54;48.08;;;23.10;;
56477;SDS011;42382;53.210;5.772;2024-02-15T13:10:21;45.70;;;23.73;;
56477;SDS011;42382;53.210;5.772;2024-02-15T13:12:47;51.72;;;22.95;;
56477;SDS011;42382;53.210;5.772;2024-02-15T13:15:13;46.40;;;22.15;;
56477;SDS011;42382;53.210;5.772;2024-02-15T13:17:43;47.85;;;22.35;;
56477;SDS011;42382;53.210;5.772;2024-02-15T13:20:22;51.28;;;22.02;;
56477;SDS011;42382;53.210;5.772;2024-02-15T13:22:58;53.53;;;23.92;;
56477;SDS011;42382;53.210;5.772;2024-02-15T13:25:28;51.17;;;23.90;;
56477;SDS011;42382;53.210;5.772;2024-02-15T13:27:55;51.65;;;24.98;;
56477;SDS011;42382;53.210;5.772;2024-02-15T13:30:21;49.08;;;22.73;;
56477;SDS011;42382;53.210;5.772;2024-02-15T13:32:51;50.40;;;23.20;;
56477;SDS011;42382;53.210;5.772;2024-02-15T13:35:18;60.47;;;23.48;;
56477;SDS011;42382;53.210;5.772;2024-02-15T13:37:51;65.63;;;24.98;;
56477;SDS011;42382;53.210;5.772;2024-02-15T13:40:19;52.95;;;23.85;;
56477;SDS011;42382;53.210;5.772;2024-02-15T13:42:48;55.95;;;23.55;;
56477;SDS011;42382;53.210;5.772;2024-02-15T13:45:18;62.67;;;25.80;;
56477;SDS011;42382;53.210;5.772;2024-02-15T13:47:53;56.20;;;25.48;;
56477;SDS011;42382;53.210;5.772;2024-02-15T13:50:18;59.92;;;24.35;;
56477;SDS011;42382;53.210;5.772;2024-02-15T13:52:44;63.45;;;25.33;;
56477;SDS011;42382;53.210;5.772;2024-02-15T13:55:11;64.22;;;25.85;;
56477;SDS011;42382;53.210;5.772;2024-02-15T13:57:39;75.10;;;26.48;;
56477;SDS011;42382;53.210;5.772;2024-02-15T14:00:09;70.43;;;25.40;;
56477;SDS011;42382;53.210;5.772;2024-02-15T14:02:40;67.60;;;26.45;;
56477;SDS011;42382;53.210;5.772;2024-02-15T14:05:08;62.00;;;24.58;;
56477;SDS011;42382;53.210;5.772;2024-02-15T14:07:34;63.28;;;24.77;;
56477;SDS011;42382;53.210;5.772;2024-02-15T14:10:04;61.72;;;23.40;;
56477;SDS011;42382;53.210;5.772;2024-02-15T14:12:30;55.55;;;23.48;;
56477;SDS011;42382;53.210;5.772;2024-02-15T14:14:56;52.90;;;24.02;;
56477;SDS011;42382;53.210;5.772;2024-02-15T14:17:22;45.70;;;21.75;;
56477;SDS011;42382;53.210;5.772;2024-02-15T14:19:48;48.17;;;21.20;;
56477;SDS011;42382;53.210;5.772;2024-02-15T14:22:14;50.65;;;21.05;;
56477;SDS011;42382;53.210;5.772;2024-02-15T14:24:44;46.65;;;20.20;;
56477;SDS011;42382;53.210;5.772;2024-02-15T14:27:10;46.13;;;20.10;;
56477;SDS011;42382;53.210;5.772;2024-02-15T14:29:39;49.17;;;20.05;;
56477;SDS011;42382;53.210;5.772;2024-02-15T14:32:25;38.13;;;18.83;;
56477;SDS011;42382;53.210;5.772;2024-02-15T14:35:09;38.97;;;18.63;;
56477;SDS011;42382;53.210;5.772;2024-02-15T14:37:36;36.13;;;18.13;;
56477;SDS011;42382;53.210;5.772;2024-02-15T14:40:05;38.60;;;17.25;;
56477;SDS011;42382;53.210;5.772;2024-02-15T14:42:32;35.75;;;18.30;;
56477;SDS011;42382;53.210;5.772;2024-02-15T14:44:59;36.75;;;17.50;;
56477;SDS011;42382;53.210;5.772;2024-02-15T14:47:25;37.17;;;18.55;;
56477;SDS011;42382;53.210;5.772;2024-02-15T14:49:50;33.33;;;17.98;;
56477;SDS011;42382;53.210;5.772;2024-02-15T14:52:16;35.78;;;17.98;;